Flight Track Log - Related Links

Times and Time Zones

All times are in EDT time to prevent confusion due to time zone crossing. See the SUB1590 flight status page for this flight to view local times or setup timezone preferences in your user account.

Time Position Orientation Groundspeed Altitude Reporting Facility
EDT Latitude Longitude Course Direction KTS MPH feet Rate Location/Type
Tue 06:12:51 AM 39.0500 -84.6667 360° North 116 133 1,300  Level Cincinnati TRACON
Tue 06:13:57 AM 39.1000 -84.6667 360° North 150 173 2,800 1,429 Climbing Cincinnati TRACON
Tue 06:14:57 AM 39.1167 -84.7167 293° West 123 142 4,300 1,450 Climbing Cincinnati TRACON
Tue 06:15:57 AM 39.1333 -84.7500 303° West 127 146 5,700 1,388 Climbing Cincinnati TRACON
Tue 06:16:58 AM 39.1333 -84.8000 270° West 130 150 7,100 1,140 Climbing Cincinnati TRACON
Tue 06:17:58 AM 39.1500 -84.8500 293° West 132 152 8,000 500 Climbing Cincinnati TRACON
Tue 06:18:58 AM 39.1667 -84.9000 293° West 198 228 8,100 50 Climbing Cincinnati TRACON
Tue 06:19:58 AM 39.1833 -84.9667 288° West 199 229 8,100  Level Cincinnati TRACON
Tue 06:20:58 AM 39.1833 -85.0500 270° West 202 232 8,100  Level Cincinnati TRACON
Tue 06:21:58 AM 39.2000 -85.1167 288° West 199 229 8,100 -50 Level Cincinnati TRACON
Tue 06:22:58 AM 39.2167 -85.1833 288° West 200 230 8,000  Descending Cincinnati TRACON
Tue 06:23:58 AM 39.2500 -85.2333 311° West 198 228 8,100 44 Climbing Cincinnati TRACON
Tue 06:25:13 AM 39.2631 -85.3242 281° West 194 223 8,100  Level Indianapolis Center
Tue 06:26:13 AM 39.2767 -85.3797 288° West 192 221 8,100  Level Indianapolis Center
Tue 06:27:14 AM 39.2947 -85.4469 289° West 193 222 8,100  Level Indianapolis Center
Tue 06:28:15 AM 39.3142 -85.5272 287° West 195 224 8,100  Level Indianapolis Center
Tue 06:29:15 AM 39.3314 -85.5942 288° West 195 224 8,100 50 Level Indianapolis Center
Tue 06:30:16 AM 39.3489 -85.6614 289° West 196 226 8,200 -50 Climbing Indianapolis Center
Tue 06:31:16 AM 39.3661 -85.7292 288° West 197 227 8,000 -50 Descending Indianapolis Center
Tue 06:32:17 AM 39.3806 -85.7961 286° West 196 226 8,100 49 Climbing Indianapolis Center
Tue 06:33:18 AM 39.3958 -85.8633 286° West 195 224 8,100  Level Indianapolis Center
Tue 06:34:18 AM 39.4131 -85.9303 288° West 195 224 8,100  Level Indianapolis Center
Tue 06:35:19 AM 39.4314 -85.9978 289° West 195 224 8,100 -49 Level Indianapolis Center
Tue 06:36:20 AM 39.4483 -86.0664 288° West 197 227 8,000 -50 Descending Indianapolis Center
Tue 06:37:20 AM 39.4647 -86.1347 287° West 199 229 8,000 50 Level Indianapolis Center
Tue 06:38:21 AM 39.4819 -86.2022 288° West 198 228 8,100  Climbing Indianapolis Center
Tue 06:39:22 AM 39.4964 -86.2692 286° West 197 227 8,000 -50 Descending Indianapolis Center
Tue 06:40:22 AM 39.5097 -86.3386 284° West 196 226 8,000  Level Indianapolis Center
Tue 06:41:23 AM 39.5250 -86.4072 286° West 196 226 8,000 49 Level Indianapolis Center
Tue 06:42:24 AM 39.5403 -86.4742 287° West 196 226 8,100  Climbing Indianapolis Center
Tue 06:43:24 AM 39.5553 -86.5419 286° West 196 226 8,000 -50 Descending Indianapolis Center
Tue 06:44:25 AM 39.5722 -86.6083 288° West 195 224 8,000 49 Level Indianapolis Center
Tue 06:45:26 AM 39.5864 -86.6756 285° West 194 223 8,100 49 Climbing Indianapolis Center
Tue 06:46:27 AM 39.5994 -86.7431 284° West 194 223 8,100 50 Level Indianapolis Center
Tue 06:47:27 AM 39.6189 -86.8108 290° West 196 226 8,200  Climbing Indianapolis Center
Tue 06:48:28 AM 39.6358 -86.8811 287° West 199 229 8,100 -49 Descending Indianapolis Center
Tue 06:49:29 AM 39.6531 -86.9494 288° West 199 229 8,100 49 Level Indianapolis Center
Tue 06:50:30 AM 39.6703 -87.0183 288° West 200 230 8,200  Climbing Indianapolis Center
Tue 06:51:30 AM 39.6872 -87.0861 288° West 199 229 8,100 -50 Descending Indianapolis Center
Tue 06:52:31 AM 39.7019 -87.1561 285° West 199 229 8,100 -49 Level Indianapolis Center
Tue 06:53:32 AM 39.7172 -87.2267 286° West 200 230 8,000  Descending Indianapolis Center
Tue 06:54:33 AM 39.7308 -87.2961 284° West 200 230 8,100 49 Climbing Indianapolis Center
Tue 06:55:34 AM 39.7442 -87.3644 284° West 198 228 8,100  Level Indianapolis Center
Tue 06:56:34 AM 39.7622 -87.4453 286° West 196 226 8,100 -50 Level Indianapolis Center
Tue 06:57:35 AM 39.7767 -87.5150 285° West 197 227 8,000  Descending Indianapolis Center
Tue 06:58:36 AM 39.7908 -87.5842 285° West 197 227 8,100 49 Climbing Indianapolis Center
Tue 06:59:37 AM 39.8086 -87.6553 288° West 201 231 8,100  Level Indianapolis Center
Tue 07:00:38 AM 39.8256 -87.7233 288° West 201 231 8,100  Level Indianapolis Center
Tue 07:01:39 AM 39.8389 -87.7931 284° West 199 229 8,100  Level Indianapolis Center
Tue 07:02:40 AM 39.8547 -87.8608 287° West 198 228 8,100  Level Indianapolis Center
Tue 07:03:40 AM 39.8711 -87.9283 288° West 197 227 8,100  Level Indianapolis Center
Tue 07:04:41 AM 39.8883 -87.9983 288° West 198 228 8,100 48 Level Indianapolis Center
Tue 07:05:46 AM 39.9033 -88.0744 284° West 198 228 8,200 48 Climbing Kansas Center
Tue 07:06:47 AM 39.9167 -88.1433 284° West 196 226 8,200  Level Kansas Center
Tue 07:07:46 AM 39.9306 -88.2117 285° West 196 226 8,200  Level Kansas Center
Tue 07:08:47 AM 39.9464 -88.2819 286° West 198 228 8,200  Level Kansas Center
Tue 07:09:49 AM 39.9606 -88.3481 286° West 193 222 8,200 195 Level Chicago Center
Tue 07:10:50 AM 39.9733 -88.4167 284° West 194 223 8,600 836 Climbing Chicago Center
Tue 07:11:51 AM 39.9858 -88.4725 286° West 168 193 9,900 807 Climbing Chicago Center
Tue 07:12:49 AM 39.9986 -88.5222 289° West 162 186 10,200 151 Climbing Kansas Center
Tue 07:13:50 AM 40.0122 -88.5919 284° West 186 214 10,200  Level Kansas Center
Tue 07:14:49 AM 40.0256 -88.6606 284° West 194 223 10,200 -50 Level Kansas Center
Tue 07:15:49 AM 40.0392 -88.7300 284° West 198 228 10,100  Descending Kansas Center
Tue 07:16:50 AM 40.0536 -88.7986 285° West 196 226 10,200 49 Climbing Kansas Center
Tue 07:17:52 AM 40.0697 -88.8675 287° West 198 228 10,200 -99 Level Kansas Center
Tue 07:18:51 AM 40.0867 -88.9350 288° West 197 227 10,000 -50 Descending Kansas Center
Tue 07:19:51 AM 40.1017 -89.0047 286° West 198 228 10,100 49 Climbing Kansas Center
Tue 07:20:54 AM 40.1169 -89.0736 286° West 198 228 10,100  Level Kansas Center
Tue 07:21:54 AM 40.1294 -89.1433 283° West 197 227 10,100  Level Kansas Center
Tue 07:22:55 AM 40.1425 -89.2139 284° West 198 228 10,100  Level Kansas Center
Tue 07:23:56 AM 40.1603 -89.2811 289° West 197 227 10,100  Level Kansas Center
Tue 07:24:57 AM 40.1761 -89.3500 287° West 198 228 10,100  Level Kansas Center
Tue 07:25:57 AM 40.1911 -89.4183 286° West 196 226 10,100  Level Kansas Center
Tue 07:27:08 AM 40.2067 -89.5011 284° West 197 227 10,100 -45 Level Chicago Center
Tue 07:28:09 AM 40.2208 -89.5719 285° West 199 229 10,000  Descending Chicago Center
Tue 07:29:10 AM 40.2342 -89.6417 284° West 199 229 10,100  Climbing Chicago Center
Tue 07:30:12 AM 40.2519 -89.7242 286° West 196 226 10,000  Descending Chicago Center
Tue 07:31:13 AM 40.2656 -89.7936 284° West 197 227 10,100 49 Climbing Chicago Center
Tue 07:32:15 AM 40.2781 -89.8631 283° West 196 226 10,100  Level Chicago Center
Tue 07:32:51 AM 40.2867 -89.9050 285° West 197 227 10,100 61 Level Chicago Center
Tue 07:33:53 AM 40.2997 -89.9736 284° West 194 223 10,200 49 Climbing Chicago Center
Tue 07:34:54 AM 40.3131 -90.0408 285° West 191 220 10,200  Level Chicago Center
Tue 07:35:56 AM 40.3258 -90.1097 284° West 194 223 10,200 -49 Level Chicago Center
Tue 07:36:57 AM 40.3394 -90.1781 285° West 194 223 10,100 -49 Descending Chicago Center
Tue 07:37:59 AM 40.3519 -90.2478 283° West 196 226 10,100  Level Chicago Center
Tue 07:38:24 AM 40.3564 -90.2758 282° West 196 226 10,100 70 Level Chicago Center
Tue 07:39:25 AM 40.3689 -90.3442 284° West 194 223 10,200 49 Climbing Chicago Center
Tue 07:40:27 AM 40.3881 -90.4256 287° West 194 223 10,200 -49 Level Chicago Center
Tue 07:41:28 AM 40.4022 -90.4956 285° West 198 228 10,100 -49 Descending Chicago Center
Tue 07:42:30 AM 40.4122 -90.5653 281° West 196 226 10,100 -49 Level Chicago Center
Tue 07:43:31 AM 40.4267 -90.6353 285° West 197 227 10,000  Descending Chicago Center
Tue 07:44:33 AM 40.4433 -90.7036 288° West 197 227 10,100 49 Climbing Chicago Center
Tue 07:45:34 AM 40.4578 -90.7733 285° West 197 227 10,100 49 Level Chicago Center
Tue 07:46:36 AM 40.4694 -90.8417 283° West 194 223 10,200 49 Climbing Chicago Center
Tue 07:47:37 AM 40.4819 -90.9131 283° West 198 228 10,200  Level Chicago Center
Tue 07:48:39 AM 40.4914 -90.9822 280° West 194 223 10,200 -49 Level Chicago Center
Tue 07:49:40 AM 40.5081 -91.0689 284° West 200 230 10,100 -49 Descending Chicago Center
Tue 07:50:42 AM 40.5194 -91.1400 282° West 200 230 10,100  Level Chicago Center
Tue 07:51:43 AM 40.5322 -91.2114 283° West 199 229 10,100 49 Level Chicago Center
Tue 07:52:45 AM 40.5450 -91.2825 283° West 200 230 10,200 49 Climbing Chicago Center
Tue 07:53:46 AM 40.5608 -91.3531 286° West 201 231 10,200 49 Level Chicago Center
Tue 07:54:48 AM 40.5733 -91.4239 283° West 202 232 10,300 -49 Climbing Chicago Center
Tue 07:55:49 AM 40.5908 -91.4944 288° West 202 232 10,100 -98 Descending Chicago Center
Tue 07:56:51 AM 40.6039 -91.5667 283° West 204 235 10,100  Level Chicago Center
Tue 07:57:53 AM 40.6178 -91.6514 282° West 199 229 10,100 -132 Level Chicago Center
Tue 07:58:22 AM 40.6214 -91.6786 280° West 198 228 9,900  Descending Kansas Center
Tue 07:58:54 AM 40.6292 -91.7208 284° West 199 229 10,100 128 Climbing Chicago Center
Tue 07:59:56 AM 40.6422 -91.7908 284° West 199 229 10,100 -49 Level Chicago Center
Tue 08:00:57 AM 40.6550 -91.8594 284° West 197 227 10,000  Descending Chicago Center
Tue 08:01:59 AM 40.6681 -91.9278 284° West 195 224 10,100 49 Climbing Chicago Center
Tue 08:03:00 AM 40.6792 -91.9956 282° West 192 221 10,100 -49 Level Chicago Center
Tue 08:04:02 AM 40.6944 -92.0772 284° West 193 222 10,000  Descending Chicago Center
Tue 08:05:04 AM 40.7061 -92.1436 283° West 189 217 10,100  Climbing Chicago Center
Tue 08:06:05 AM 40.7197 -92.2106 285° West 190 219 10,000 -98 Descending Chicago Center
Tue 08:07:07 AM 40.7311 -92.2792 282° West 192 221 9,900  Descending Chicago Center
Tue 08:08:09 AM 40.7425 -92.3469 283° West 192 221 10,000 98 Climbing Chicago Center
Tue 08:09:10 AM 40.7536 -92.4286 280° West 192 221 10,100 49 Climbing Chicago Center
Tue 08:10:12 AM 40.7658 -92.4961 283° West 191 220 10,100  Level Chicago Center
Tue 08:11:14 AM 40.7789 -92.5653 284° West 197 227 10,100  Level Chicago Center
Tue 08:12:16 AM 40.7911 -92.6339 283° West 196 226 10,100  Level Chicago Center
Tue 08:13:17 AM 40.8053 -92.7036 285° West 197 227 10,100  Level Chicago Center
Tue 08:14:19 AM 40.8189 -92.7747 284° West 199 229 10,100  Level Chicago Center
Tue 08:15:21 AM 40.8356 -92.8592 285° West 200 230 10,100 52 Level Chicago Center
Tue 08:16:15 AM 40.8475 -92.9169 285° West 201 231 10,200 52 Climbing Minneapolis Center
Tue 08:17:16 AM 40.8608 -92.9872 284° West 201 231 10,200 -49 Level Minneapolis Center
Tue 08:18:18 AM 40.8775 -93.0733 284° West 202 232 10,100 -49 Descending Minneapolis Center
Tue 08:19:19 AM 40.8889 -93.1439 282° West 198 228 10,100  Level Minneapolis Center
Tue 08:20:20 AM 40.8983 -93.2175 280° West 202 232 10,100 -49 Level Minneapolis Center
Tue 08:21:22 AM 40.9089 -93.2958 280° West 201 231 10,000 -49 Descending Minneapolis Center
Tue 08:22:23 AM 40.9172 -93.3708 278° West 204 235 10,000  Level Minneapolis Center
Tue 08:23:25 AM 40.9294 -93.4444 282° West 206 237 10,000 49 Level Minneapolis Center
Tue 08:24:26 AM 40.9433 -93.5231 283° West 205 236 10,100  Climbing Minneapolis Center
Tue 08:25:28 AM 40.9569 -93.5964 284° West 206 237 10,000  Descending Minneapolis Center
Tue 08:26:29 AM 40.9683 -93.6706 282° West 206 237 10,100  Climbing Minneapolis Center
Tue 08:27:10 AM 40.9858 -93.7122 299° West 205 236 10,000  Descending Minneapolis Center
Tue 08:27:31 AM 40.9819 -93.7433 261° West 204 235 10,100 73 Climbing Minneapolis Center
Tue 08:28:32 AM 40.9928 -93.8225 280° West 203 234 10,100  Level Minneapolis Center
Tue 08:29:34 AM 41.0075 -93.8939 285° West 202 232 10,100 -49 Level Minneapolis Center
Tue 08:30:35 AM 41.0194 -93.9667 282° West 202 232 10,000  Descending Minneapolis Center
Tue 08:31:37 AM 41.0306 -94.0442 281° West 200 230 10,100  Climbing Minneapolis Center
Tue 08:32:38 AM 41.0414 -94.1167 281° West 201 231 10,000 -49 Descending Minneapolis Center
Tue 08:33:40 AM 41.0511 -94.1856 281° West 194 223 10,000  Level Minneapolis Center
Tue 08:34:41 AM 41.0583 -94.2636 277° West 199 229 10,000  Level Minneapolis Center
Tue 08:35:43 AM 41.0681 -94.3339 280° West 197 227 10,000 48 Level Minneapolis Center
Tue 08:36:45 AM 41.0797 -94.4044 282° West 196 226 10,100  Climbing Minneapolis Center
Tue 08:37:46 AM 41.0903 -94.4817 280° West 197 227 10,000 -49 Descending Minneapolis Center
Tue 08:38:48 AM 41.1000 -94.5525 280° West 195 224 10,000 49 Level Minneapolis Center
Tue 08:39:49 AM 41.1136 -94.6197 285° West 200 230 10,100 49 Climbing Minneapolis Center
Tue 08:40:51 AM 41.1250 -94.6900 282° West 197 227 10,100  Level Minneapolis Center
Tue 08:41:52 AM 41.1367 -94.7600 283° West 195 224 10,100 49 Level Minneapolis Center
Tue 08:42:54 AM 41.1447 -94.8319 278° West 196 226 10,200 75 Climbing Minneapolis Center
Tue 08:43:12 AM 41.1619 -94.8683 302° West 196 226 10,200 -197 Level Minneapolis Center
Tue 08:43:55 AM 41.1536 -94.9025 252° West 195 224 10,000 -600 Descending Minneapolis Center
Tue 08:44:12 AM 41.1675 -94.9425 295° West 200 230 9,600 -1,065 Descending Minneapolis Center
Tue 08:44:57 AM 41.1614 -94.9956 261° West 203 234 8,900 -885 Descending Minneapolis Center
Tue 08:45:13 AM 41.1736 -95.0222 301° West 221 254 8,700 -677 Descending Minneapolis Center
Tue 08:45:59 AM 41.1678 -95.0744 262° West 210 242 8,200 -673 Descending Minneapolis Center
Tue 08:47:00 AM 41.1739 -95.1533 276° West 213 245 7,500 -683 Descending Minneapolis Center
Tue 08:48:02 AM 41.1756 -95.2175 272° West 214 246 6,800 -968 Descending Minneapolis Center
Tue 08:49:04 AM 41.1797 -95.3208 273° West 223 257 5,500 -976 Descending Minneapolis Center
Tue 08:50:05 AM 41.1875 -95.4058 277° West 230 265 4,800 -750 Descending Minneapolis Center
Tue 08:51:04 AM 41.2014 -95.5008 281° West 219 252 4,000 -649 Descending Minneapolis Center
Tue 08:51:19 AM 41.1972 -95.5019 191° South 225 259 4,000 -689 Level Minneapolis Center
Tue 08:52:05 AM 41.2131 -95.5769 286° West 216 249 3,300 -677 Descending Minneapolis Center
Tue 08:52:21 AM 41.2122 -95.5950 266° West 219 252 3,300  Level Minneapolis Center
Tue 08:53:06 AM 41.2225 -95.6536 283° West 207 238 3,300  Level Minneapolis Center
Tue 08:53:22 AM 41.2225 -95.6694 270° West 214 246 3,300  Level Minneapolis Center
Tue 08:54:06 AM 41.2292 -95.7219 280° West 188 216 3,300  Level Minneapolis Center
Tue 08:54:24 AM 41.2297 -95.7378 273° West 201 231 3,300 -98 Level Minneapolis Center
Tue 08:55:07 AM 41.2356 -95.7850 279° West 172 198 3,200 -194 Descending Minneapolis Center
Tue 08:55:26 AM 41.2378 -95.8003 281° West 187 215 3,100 -492 Descending Minneapolis Center
Tue 08:56:08 AM 41.2456 -95.8394 285° West 125 144 2,700 -492 Descending Minneapolis Center
Tue 08:56:27 AM 41.2492 -95.8433 321° Northwest 152 175 2,600 -818 Descending Minneapolis Center
Tue 08:57:14 AM 41.2706 -95.8697 317° Northwest 109 125 1,800 -871 Descending Minneapolis Center
Tue 08:57:29 AM 41.2744 -95.8692 North 127 146 1,700 -409 Descending Minneapolis Center
Tue 08:58:42 AM 41.3031 -95.8967 324° Northwest 121 139 1,200 -411 Descending Minneapolis Center

Login

Don't have an account? Register now (free) for customized features, flight alerts, and more!